Time;durP1;ratioP1;P1;durP2;ratioP2;P2;SDS_P1;SDS_P2;PMS_P1;PMS_P2;Temp;Humidity;BMP_temperature;BMP_pressure;BME280_temperature;BME280_humidity;BME280_pressure;Samples;Min_cycle;Max_cycle;Signal;HPM_P1;HPM_P2
2023/01/04 00:01:52;;;;;;;57.10;36.85;;;3.00;99.90;;;;;;4926376;29;20405;-86
2023/01/04 00:04:20;;;;;;;56.20;32.90;;;3.10;99.90;;;;;;4924562;29;20218;-85
2023/01/04 00:06:47;;;;;;;54.97;35.15;;;3.20;99.90;;;;;;4911223;29;20287;-84
2023/01/04 00:09:14;;;;;;;50.42;33.03;;;3.20;99.90;;;;;;4922914;29;20210;-84
2023/01/04 00:11:43;;;;;;;59.38;34.30;;;3.10;99.90;;;;;;4923244;29;20225;-83
2023/01/04 00:14:10;;;;;;;57.08;31.77;;;2.90;99.90;;;;;;4922743;29;20655;-83
2023/01/04 00:16:37;;;;;;;52.92;31.33;;;3.30;99.90;;;;;;4922233;29;20217;-85
2023/01/04 00:19:05;;;;;;;54.47;32.55;;;3.50;99.90;;;;;;4922982;29;20211;-84
2023/01/04 00:21:32;;;;;;;50.47;31.55;;;3.70;99.90;;;;;;4922436;29;20221;-83
2023/01/04 00:24:07;;;;;;;51.65;32.63;;;4.10;99.90;;;;;;4922297;29;20357;-83
2023/01/04 00:26:39;;;;;;;49.70;32.00;;;4.20;99.90;;;;;;4921667;29;20623;-84
2023/01/04 00:29:12;;;;;;;48.58;28.80;;;4.30;99.90;;;;;;4921498;29;20213;-84
2023/01/04 00:31:39;;;;;;;50.85;29.73;;;4.40;99.90;;;;;;4922012;29;20775;-84
2023/01/04 00:34:12;;;;;;;39.67;25.58;;;4.30;99.90;;;;;;4922693;29;20289;-84
2023/01/04 00:36:40;;;;;;;54.10;31.55;;;4.40;99.90;;;;;;4920954;29;20267;-83
2023/01/04 00:39:14;;;;;;;50.00;28.73;;;4.40;99.90;;;;;;4921469;29;20218;-83
2023/01/04 00:41:49;;;;;;;42.42;27.92;;;4.30;99.90;;;;;;4922372;29;20523;-84
2023/01/04 00:44:27;;;;;;;46.40;27.60;;;3.90;99.90;;;;;;4913892;29;20202;-83
2023/01/04 00:46:54;;;;;;;42.75;25.58;;;3.80;99.90;;;;;;4922652;29;20253;-84
2023/01/04 00:49:21;;;;;;;41.50;26.40;;;3.30;99.90;;;;;;4923307;29;20223;-85
2023/01/04 00:51:48;;;;;;;39.83;24.65;;;3.00;99.90;;;;;;4917168;29;20210;-86
2023/01/04 00:54:16;;;;;;;47.15;27.60;;;3.00;99.90;;;;;;4924315;29;20218;-85
2023/01/04 00:56:44;;;;;;;40.90;26.35;;;2.80;99.90;;;;;;4925396;29;20222;-85
2023/01/04 00:59:13;;;;;;;38.97;25.27;;;2.80;99.90;;;;;;4925388;29;20578;-86
2023/01/04 01:01:41;;;;;;;38.75;24.35;;;2.80;99.90;;;;;;4921701;29;20214;-85
2023/01/04 01:04:14;;;;;;;45.42;26.75;;;2.90;99.90;;;;;;4907250;29;20349;-84
2023/01/04 01:06:41;;;;;;;55.13;29.23;;;2.90;99.90;;;;;;4925528;29;20246;-85
2023/01/04 01:09:09;;;;;;;44.72;28.13;;;2.90;99.90;;;;;;4929042;29;20238;-87
2023/01/04 01:11:39;;;;;;;40.58;26.05;;;2.90;99.90;;;;;;4929384;29;20219;-86
2023/01/04 01:14:10;;;;;;;46.72;29.52;;;2.90;99.90;;;;;;4932863;28;20227;-86
2023/01/04 01:16:39;;;;;;;42.38;28.65;;;2.80;99.90;;;;;;4932088;28;20303;-87
2023/01/04 01:19:27;;;;;;;47.95;27.00;;;2.70;99.90;;;;;;4923271;29;20248;-88
2023/01/04 01:21:56;;;;;;;43.13;29.13;;;2.60;99.90;;;;;;5018181;23;20249;-89
2023/01/04 01:24:24;;;;;;;49.25;30.40;;;2.70;99.90;;;;;;4928381;29;20244;-87
2023/01/04 01:26:51;;;;;;;38.60;26.27;;;2.70;99.90;;;;;;4931148;28;20267;-88
2023/01/04 01:29:19;;;;;;;45.20;28.55;;;2.60;99.90;;;;;;4927945;29;20217;-88
2023/01/04 01:31:46;;;;;;;50.40;29.45;;;2.60;99.90;;;;;;4930415;29;20307;-87
2023/01/04 01:34:15;;;;;;;53.83;31.13;;;2.60;99.90;;;;;;4930514;29;20210;-86
2023/01/04 01:36:42;;;;;;;61.25;32.22;;;2.50;99.90;;;;;;4929348;29;20222;-87
2023/01/04 01:39:10;;;;;;;46.05;26.48;;;2.50;99.90;;;;;;5009958;23;20300;-87
2023/01/04 01:41:37;;;;;;;46.83;27.20;;;2.50;99.90;;;;;;4930407;29;20226;-88
2023/01/04 01:44:25;;;;;;;45.67;27.55;;;2.50;99.90;;;;;;4931194;29;20269;-87
2023/01/04 01:46:53;;;;;;;36.58;24.88;;;2.40;99.90;;;;;;4929008;29;20229;-87
2023/01/04 01:49:29;;;;;;;41.40;25.60;;;2.40;99.90;;;;;;4929556;28;20428;-89
2023/01/04 01:52:02;;;;;;;35.92;22.10;;;2.40;99.90;;;;;;4928540;28;20213;-86
2023/01/04 01:54:34;;;;;;;42.72;25.25;;;2.30;99.90;;;;;;4933169;29;20212;-88
2023/01/04 01:57:04;;;;;;;38.78;22.05;;;2.30;99.90;;;;;;4937397;28;20269;-86
2023/01/04 01:59:51;;;;;;;47.70;25.13;;;2.30;99.90;;;;;;5114451;27;20561;-86
2023/01/04 02:02:26;;;;;;;39.30;25.48;;;2.20;99.90;;;;;;5137344;23;20312;-86
2023/01/04 02:04:54;;;;;;;37.60;22.90;;;2.20;99.90;;;;;;5040098;28;20207;-85
2023/01/04 02:07:25;;;;;;;31.30;22.73;;;2.40;99.90;;;;;;5041859;28;20205;-86
2023/01/04 02:09:55;;;;;;;45.30;28.80;;;2.60;99.90;;;;;;5041252;28;20204;-87
2023/01/04 02:12:22;;;;;;;51.22;30.52;;;2.70;99.90;;;;;;5043442;28;20722;-86
2023/01/04 02:14:50;;;;;;;50.78;30.58;;;2.50;99.90;;;;;;5041940;28;20198;-88
2023/01/04 02:17:25;;;;;;;37.85;25.30;;;2.60;99.90;;;;;;5038783;28;20229;-87
2023/01/04 02:20:22;;;;;;;34.85;23.15;;;2.70;99.90;;;;;;5041085;28;20190;-84
2023/01/04 02:23:48;;;;;;;39.90;23.98;;;2.70;99.90;;;;;;5026489;28;20238;-86
2023/01/04 02:26:34;;;;;;;38.20;22.02;;;2.60;99.90;;;;;;4955174;29;20212;-86
2023/01/04 02:29:33;;;;;;;44.95;26.20;;;2.60;99.90;;;;;;4964040;28;20247;-86
2023/01/04 02:32:25;;;;;;;39.80;23.52;;;2.60;99.90;;;;;;5031010;28;20229;-86
2023/01/04 02:35:08;;;;;;;39.15;23.25;;;2.40;99.90;;;;;;5018853;28;20617;-86
2023/01/04 02:37:45;;;;;;;31.05;21.17;;;2.30;99.90;;;;;;5034456;28;20201;-86
2023/01/04 02:40:44;;;;;;;34.60;20.60;;;2.30;99.90;;;;;;5042593;28;20192;-85
2023/01/04 02:46:33;;;;;;;36.05;20.80;;;2.30;99.90;;;;;;5029197;28;20185;-87
2023/01/04 02:51:50;;;;;;;26.27;18.88;;;2.10;99.90;;;;;;5035053;28;20209;-89
2023/01/04 02:54:31;;;;;;;30.60;18.48;;;2.00;99.90;;;;;;5038253;28;20200;-87
2023/01/04 02:57:38;;;;;;;30.10;19.42;;;2.20;99.90;;;;;;5033205;28;20533;-85
2023/01/04 03:07:24;;;;;;;29.42;19.23;;;2.10;99.90;;;;;;5025947;28;20209;-86
2023/01/04 03:09:59;;;;;;;34.35;21.17;;;2.10;99.90;;;;;;5029446;28;20237;-86
2023/01/04 03:12:31;;;;;;;27.73;17.95;;;2.10;99.90;;;;;;5024574;28;20273;-85
2023/01/04 03:15:13;;;;;;;24.40;16.20;;;2.10;99.90;;;;;;5025173;28;20209;-87
2023/01/04 03:17:49;;;;;;;25.02;15.38;;;2.10;99.90;;;;;;5023291;28;20190;-89
2023/01/04 03:36:52;;;;;;;19.40;14.02;;;1.80;99.90;;;;;;5697649;23;20252;-89
2023/01/04 03:51:24;;;;;;;23.85;15.05;;;2.10;99.90;;;;;;5248817;22;21018;-88
2023/01/04 03:54:10;;;;;;;22.83;14.15;;;2.00;99.90;;;;;;5281824;22;20407;-88
2023/01/04 03:56:41;;;;;;;28.50;16.65;;;2.20;99.90;;;;;;5134946;22;20230;-89
2023/01/04 03:59:09;;;;;;;23.52;16.02;;;2.20;99.90;;;;;;5393716;22;20232;-88
2023/01/04 04:01:36;;;;;;;28.27;16.33;;;2.20;99.90;;;;;;5313844;22;20228;-89
2023/01/04 04:09:29;;;;;;;21.23;12.25;;;2.10;99.90;;;;;;5072346;28;20257;-87
2023/01/04 04:12:03;;;;;;;19.92;12.75;;;2.20;99.90;;;;;;5068143;28;20288;-86
2023/01/04 04:14:30;;;;;;;17.02;13.15;;;2.20;99.90;;;;;;5065455;28;20197;-87
2023/01/04 04:19:39;;;;;;;24.42;12.52;;;1.90;99.90;;;;;;5302000;22;20216;-87
2023/01/04 04:22:06;;;;;;;16.20;11.00;;;2.00;99.90;;;;;;5047259;28;20213;-87
2023/01/04 04:24:34;;;;;;;23.63;14.43;;;2.10;99.90;;;;;;5052325;28;20204;-87
2023/01/04 04:27:03;;;;;;;17.70;12.65;;;2.00;99.90;;;;;;5246625;22;20274;-86
2023/01/04 04:29:32;;;;;;;14.73;11.90;;;2.00;99.90;;;;;;5159919;22;20242;-86
2023/01/04 04:31:59;;;;;;;16.25;10.52;;;2.00;99.90;;;;;;5073989;28;20252;-86
2023/01/04 04:34:26;;;;;;;14.80;12.30;;;2.10;99.90;;;;;;5074575;28;20255;-88
2023/01/04 04:36:54;;;;;;;18.52;11.77;;;2.20;99.90;;;;;;5072754;28;20206;-88
2023/01/04 04:39:21;;;;;;;19.05;12.35;;;2.00;99.90;;;;;;5066944;28;20223;-87
2023/01/04 04:41:47;;;;;;;19.02;11.60;;;2.10;99.90;;;;;;5073155;28;20189;-86
2023/01/04 04:44:17;;;;;;;17.58;12.95;;;2.00;99.90;;;;;;5069141;28;20211;-85
2023/01/04 04:46:46;;;;;;;18.95;13.05;;;2.20;99.90;;;;;;5068414;28;20205;-86
2023/01/04 04:49:14;;;;;;;19.98;12.95;;;2.20;99.90;;;;;;5067718;28;20218;-87
2023/01/04 04:51:42;;;;;;;18.42;12.48;;;2.30;99.90;;;;;;5064179;28;20214;-86
2023/01/04 04:54:13;;;;;;;15.95;11.77;;;2.30;99.90;;;;;;5061859;28;20211;-87
2023/01/04 04:56:40;;;;;;;22.30;14.30;;;2.20;99.90;;;;;;5067258;28;20269;-87
2023/01/04 04:59:06;;;;;;;18.42;12.68;;;2.20;99.90;;;;;;5065952;28;20224;-87
2023/01/04 05:01:34;;;;;;;20.80;12.82;;;2.20;99.90;;;;;;5061002;28;20213;-86
2023/01/04 05:04:01;;;;;;;24.60;13.15;;;2.10;99.90;;;;;;5061385;28;20275;-87
2023/01/04 05:06:29;;;;;;;19.30;14.15;;;2.10;99.90;;;;;;5058337;28;20204;-88
2023/01/04 05:08:56;;;;;;;20.35;14.35;;;2.10;99.90;;;;;;5060595;28;20772;-87
2023/01/04 05:14:09;;;;;;;22.38;14.38;;;2.10;99.90;;;;;;5066691;28;20207;-87
2023/01/04 05:16:36;;;;;;;24.10;15.68;;;1.90;99.90;;;;;;5066877;28;20206;-86
2023/01/04 05:19:03;;;;;;;20.70;13.60;;;1.90;99.90;;;;;;5065165;28;20216;-87
2023/01/04 05:21:30;;;;;;;21.80;15.18;;;2.00;99.90;;;;;;5060939;28;20210;-88
2023/01/04 05:23:57;;;;;;;21.15;16.17;;;2.00;99.90;;;;;;5063977;28;20212;-87
2023/01/04 05:26:24;;;;;;;23.55;16.45;;;2.00;99.90;;;;;;5064156;28;20201;-85
2023/01/04 05:28:51;;;;;;;20.52;14.75;;;2.00;99.90;;;;;;5059502;28;20213;-88
2023/01/04 05:31:20;;;;;;;32.42;15.30;;;2.10;99.90;;;;;;5062901;28;20210;-88
2023/01/04 05:33:47;;;;;;;24.25;16.23;;;2.00;99.90;;;;;;5063187;28;20201;-88
2023/01/04 05:36:15;;;;;;;25.10;17.02;;;1.90;99.90;;;;;;5066498;28;20206;-87
2023/01/04 05:38:42;;;;;;;29.63;17.00;;;2.00;99.90;;;;;;5062252;28;20239;-89
2023/01/04 05:42:23;;;;;;;25.58;15.38;;;1.80;99.90;;;;;;5066389;28;20227;-89
2023/01/04 05:43:55;;;;;;;27.13;16.83;;;1.90;99.90;;;;;;5065204;28;20205;-87
2023/01/04 05:46:23;;;;;;;29.75;17.23;;;2.00;99.90;;;;;;5064137;28;20199;-87
2023/01/04 05:48:51;;;;;;;28.38;16.88;;;2.00;99.90;;;;;;5061332;28;20224;-87
2023/01/04 05:51:18;;;;;;;25.52;18.80;;;2.00;99.90;;;;;;5068523;28;20205;-88
2023/01/04 05:53:45;;;;;;;34.78;19.05;;;1.80;99.90;;;;;;5062740;28;20213;-88
2023/01/04 05:56:12;;;;;;;27.80;19.33;;;1.90;99.90;;;;;;5062402;28;20207;-89
2023/01/04 05:58:39;;;;;;;31.42;19.50;;;1.90;99.90;;;;;;5055061;28;20231;-87
2023/01/04 06:01:06;;;;;;;26.38;18.52;;;2.00;99.90;;;;;;5061432;28;20212;-90
2023/01/04 06:03:34;;;;;;;24.02;18.83;;;1.90;99.90;;;;;;5063482;28;20204;-89
2023/01/04 06:06:01;;;;;;;30.52;19.45;;;1.80;99.90;;;;;;5062823;28;20219;-91
2023/01/04 06:08:28;;;;;;;31.63;19.88;;;1.80;99.90;;;;;;5152337;22;20236;-86
2023/01/04 06:10:55;;;;;;;31.02;19.70;;;1.90;99.90;;;;;;5073611;28;20203;-88
2023/01/04 06:13:24;;;;;;;26.27;17.90;;;1.80;99.90;;;;;;5070967;28;20191;-88
2023/01/04 06:15:50;;;;;;;24.90;18.42;;;1.90;99.90;;;;;;5085543;28;20212;-87
2023/01/04 06:18:17;;;;;;;31.77;19.75;;;2.00;99.90;;;;;;5074981;28;20208;-88
2023/01/04 06:20:45;;;;;;;26.05;17.67;;;2.00;99.90;;;;;;5112477;22;20238;-87
2023/01/04 06:23:12;;;;;;;26.85;18.38;;;1.80;99.90;;;;;;5134448;22;20214;-88
2023/01/04 06:25:41;;;;;;;29.30;19.48;;;1.70;99.90;;;;;;5084110;28;20208;-88
2023/01/04 06:28:08;;;;;;;22.80;17.60;;;1.90;99.90;;;;;;5077478;28;20202;-88
2023/01/04 06:30:35;;;;;;;30.92;19.50;;;1.90;99.90;;;;;;5081748;28;20208;-88
2023/01/04 06:33:03;;;;;;;32.17;21.73;;;1.90;99.90;;;;;;5200756;22;21178;-87
2023/01/04 06:35:31;;;;;;;34.15;19.38;;;1.90;99.90;;;;;;5043910;28;20232;-88
2023/01/04 06:37:58;;;;;;;22.27;19.08;;;1.90;99.90;;;;;;5038955;28;20256;-91
2023/01/04 06:40:25;;;;;;;29.77;19.23;;;1.90;99.90;;;;;;5042135;28;20234;-89
2023/01/04 06:42:52;;;;;;;28.80;18.25;;;1.90;99.90;;;;;;5042433;28;20208;-90
2023/01/04 06:45:19;;;;;;;23.77;16.40;;;1.80;99.90;;;;;;5048335;28;20196;-87
2023/01/04 06:47:46;;;;;;;29.08;18.42;;;1.90;99.90;;;;;;5051877;28;20200;-88
2023/01/04 06:50:14;;;;;;;28.20;18.75;;;1.90;99.90;;;;;;5046961;28;20206;-89
2023/01/04 06:52:41;;;;;;;23.08;16.35;;;1.80;99.90;;;;;;5043126;28;20220;-88
2023/01/04 06:55:10;;;;;;;32.08;19.60;;;1.90;99.90;;;;;;5049723;28;20221;-88
2023/01/04 06:57:37;;;;;;;25.33;16.63;;;1.90;99.90;;;;;;5047263;28;20260;-87
2023/01/04 07:00:07;;;;;;;24.45;16.17;;;1.90;99.90;;;;;;5051586;28;20213;-88
2023/01/04 07:02:34;;;;;;;25.00;19.20;;;2.10;99.90;;;;;;5169650;22;20296;-89
2023/01/04 07:05:05;;;;;;;26.50;18.88;;;2.10;99.90;;;;;;5069513;28;20201;-88
2023/01/04 07:07:34;;;;;;;23.40;16.85;;;2.10;99.90;;;;;;5071029;28;20212;-88
2023/01/04 07:10:05;;;;;;;21.25;16.45;;;2.20;99.90;;;;;;5062894;28;20734;-89
2023/01/04 07:12:37;;;;;;;23.88;17.25;;;2.20;99.90;;;;;;5069204;28;20204;-88
2023/01/04 07:15:05;;;;;;;26.77;18.25;;;2.40;99.90;;;;;;5070273;28;20268;-88
2023/01/04 07:17:54;;;;;;;23.10;16.10;;;2.30;99.90;;;;;;5068906;28;20224;-88
2023/01/04 07:20:21;;;;;;;24.17;17.17;;;2.40;99.90;;;;;;5069558;28;20260;-88
2023/01/04 07:22:52;;;;;;;30.05;18.08;;;2.40;99.90;;;;;;5264732;22;21676;-91
2023/01/04 07:25:19;;;;;;;27.50;18.13;;;2.30;99.90;;;;;;5039035;28;20189;-87
2023/01/04 07:27:54;;;;;;;23.63;17.83;;;2.40;99.90;;;;;;5030804;28;20229;-89
2023/01/04 07:30:23;;;;;;;28.25;19.40;;;2.50;99.90;;;;;;5037787;28;20204;-87
2023/01/04 07:32:51;;;;;;;22.27;16.27;;;2.60;99.90;;;;;;5245462;22;20249;-89
2023/01/04 07:35:19;;;;;;;23.60;17.08;;;2.60;99.90;;;;;;5034143;28;20207;-89
2023/01/04 07:37:46;;;;;;;23.92;15.88;;;2.60;99.90;;;;;;5053601;28;20213;-88
2023/01/04 07:40:23;;;;;;;20.15;16.10;;;2.70;99.90;;;;;;5043429;28;20217;-87
2023/01/04 07:42:55;;;;;;;20.00;15.52;;;2.80;99.90;;;;;;5053531;28;20214;-87
2023/01/04 07:45:23;;;;;;;20.23;15.13;;;2.90;99.90;;;;;;5046941;28;20295;-88
2023/01/04 07:47:50;;;;;;;20.00;13.10;;;3.00;99.90;;;;;;5058928;28;20265;-88
2023/01/04 07:50:17;;;;;;;17.23;13.52;;;3.00;99.90;;;;;;5050829;28;20211;-89
2023/01/04 07:52:44;;;;;;;15.40;11.75;;;3.10;99.90;;;;;;5050483;28;20229;-89
2023/01/04 07:55:11;;;;;;;18.58;12.23;;;3.00;99.90;;;;;;5054506;28;20211;-88
2023/01/04 07:57:38;;;;;;;22.35;14.60;;;3.10;99.90;;;;;;5038983;28;20275;-88
2023/01/04 08:00:07;;;;;;;16.75;12.65;;;3.10;99.90;;;;;;5052501;28;20228;-89
2023/01/04 08:02:33;;;;;;;17.80;11.55;;;3.20;99.90;;;;;;5045147;28;20212;-87
2023/01/04 08:05:01;;;;;;;18.27;12.30;;;3.30;99.90;;;;;;5053231;28;20467;-87
2023/01/04 08:07:28;;;;;;;19.05;14.50;;;3.40;99.90;;;;;;5042336;28;20274;-86
2023/01/04 08:09:55;;;;;;;18.10;12.32;;;3.50;99.90;;;;;;5050727;28;20368;-86
2023/01/04 08:12:22;;;;;;;24.95;17.13;;;3.50;99.90;;;;;;5045166;28;20208;-85
2023/01/04 08:14:49;;;;;;;13.80;11.55;;;3.70;99.90;;;;;;5037922;28;20210;-88
2023/01/04 08:17:18;;;;;;;13.80;10.65;;;3.70;99.90;;;;;;5048189;28;20212;-88
2023/01/04 08:19:45;;;;;;;17.45;12.65;;;3.80;99.90;;;;;;5054265;28;20230;-89
2023/01/04 08:22:13;;;;;;;19.77;11.80;;;3.80;99.90;;;;;;5470418;22;20261;-91
2023/01/04 08:24:41;;;;;;;14.45;10.15;;;4.00;99.90;;;;;;5051986;28;20203;-87
2023/01/04 08:27:09;;;;;;;16.67;12.73;;;4.10;99.90;;;;;;5050520;28;20272;-88
2023/01/04 08:29:37;;;;;;;14.10;10.88;;;4.30;99.90;;;;;;5051606;28;20219;-87
2023/01/04 08:32:04;;;;;;;12.95;9.90;;;4.50;99.90;;;;;;5048569;28;20197;-87
2023/01/04 08:34:32;;;;;;;17.85;11.23;;;4.60;99.90;;;;;;5051318;28;20209;-87
2023/01/04 08:36:59;;;;;;;15.30;11.75;;;4.90;99.90;;;;;;5040985;28;20212;-85
2023/01/04 08:39:28;;;;;;;14.90;11.23;;;4.80;99.90;;;;;;5037715;28;20235;-85
2023/01/04 08:41:55;;;;;;;12.57;9.45;;;5.00;99.90;;;;;;5040737;28;20208;-85
2023/01/04 08:44:26;;;;;;;12.13;9.13;;;5.10;99.90;;;;;;5045493;28;20390;-87
2023/01/04 08:46:54;;;;;;;11.45;9.50;;;5.20;99.90;;;;;;5042989;28;20401;-83
2023/01/04 08:49:22;;;;;;;12.35;9.95;;;5.30;99.90;;;;;;5042954;28;20204;-83
2023/01/04 08:51:51;;;;;;;11.52;8.10;;;5.40;99.90;;;;;;5042879;28;20204;-86
2023/01/04 08:54:21;;;;;;;11.65;9.02;;;5.50;99.90;;;;;;5041425;28;20196;-84
2023/01/04 08:56:49;;;;;;;11.43;9.57;;;5.80;99.90;;;;;;5042331;28;20397;-85
2023/01/04 08:59:15;;;;;;;16.55;9.18;;;5.70;99.90;;;;;;5037621;28;20598;-85
2023/01/04 09:01:43;;;;;;;8.27;7.40;;;5.80;99.90;;;;;;5040658;28;20210;-87
2023/01/04 09:04:10;;;;;;;11.98;7.90;;;5.80;99.90;;;;;;5037757;28;20271;-84
2023/01/04 09:06:37;;;;;;;11.40;8.23;;;5.90;99.90;;;;;;5039018;28;20215;-84
2023/01/04 09:09:07;;;;;;;14.85;7.70;;;5.80;99.90;;;;;;5038776;28;20207;-84
2023/01/04 09:11:40;;;;;;;10.07;7.93;;;5.80;99.90;;;;;;5038868;28;20208;-84
2023/01/04 09:14:09;;;;;;;10.48;8.07;;;5.80;99.90;;;;;;5036029;28;20212;-87
2023/01/04 09:16:36;;;;;;;14.23;8.80;;;6.00;99.90;;;;;;5039753;28;20214;-86
2023/01/04 09:19:04;;;;;;;10.70;8.65;;;6.10;99.90;;;;;;5038456;28;20463;-86
2023/01/04 09:21:34;;;;;;;15.85;8.38;;;6.20;99.90;;;;;;5036306;28;20457;-84
2023/01/04 09:24:01;;;;;;;12.38;8.80;;;6.40;99.90;;;;;;5039053;28;20216;-86
2023/01/04 09:26:28;;;;;;;11.98;6.85;;;6.40;99.90;;;;;;5038845;28;20192;-84
2023/01/04 09:28:55;;;;;;;7.72;6.60;;;6.40;99.90;;;;;;5035183;28;20213;-88
2023/01/04 09:31:25;;;;;;;10.07;6.32;;;6.50;99.90;;;;;;5037098;28;20218;-83
2023/01/04 09:33:52;;;;;;;9.95;5.70;;;6.50;99.90;;;;;;5039735;28;20570;-86
2023/01/04 09:36:40;;;;;;;8.02;6.35;;;6.40;99.90;;;;;;5038705;28;20433;-84
2023/01/04 09:39:07;;;;;;;11.90;5.85;;;6.70;99.90;;;;;;5036552;28;20213;-84
2023/01/04 09:42:15;;;;;;;6.15;5.40;;;6.70;99.90;;;;;;5048343;28;20212;-85
2023/01/04 09:44:52;;;;;;;10.43;5.03;;;6.90;99.90;;;;;;5023702;28;20212;-83
2023/01/04 09:47:52;;;;;;;5.25;4.65;;;6.80;99.90;;;;;;5039974;28;20213;-85
2023/01/04 09:50:27;;;;;;;9.10;4.97;;;6.80;99.90;;;;;;5030940;28;20200;-84
2023/01/04 09:53:39;;;;;;;7.35;5.25;;;6.90;99.90;;;;;;5037965;28;20204;-85
2023/01/04 09:56:15;;;;;;;6.28;5.15;;;7.00;99.90;;;;;;5035340;28;20468;-87
2023/01/04 09:58:43;;;;;;;6.60;5.70;;;7.30;99.90;;;;;;5047317;28;20218;-88
2023/01/04 10:01:20;;;;;;;7.25;5.65;;;7.30;99.90;;;;;;5033936;28;20259;-85
2023/01/04 10:04:12;;;;;;;6.03;4.90;;;7.40;99.90;;;;;;5036034;28;20397;-85
2023/01/04 10:06:40;;;;;;;7.03;5.07;;;7.50;99.90;;;;;;5041951;28;20555;-84
2023/01/04 10:09:13;;;;;;;5.45;4.65;;;7.60;99.90;;;;;;5041530;28;20270;-85
2023/01/04 10:12:03;;;;;;;6.47;4.40;;;7.70;99.90;;;;;;5042726;28;20192;-87
2023/01/04 10:14:45;;;;;;;11.20;6.07;;;7.70;99.90;;;;;;5037704;28;20391;-87
2023/01/04 10:17:39;;;;;;;7.43;6.20;;;7.80;99.90;;;;;;5030147;28;20263;-85
2023/01/04 10:20:48;;;;;;;5.40;3.95;;;7.80;99.90;;;;;;5034359;28;20235;-85
2023/01/04 10:23:37;;;;;;;6.78;4.50;;;8.10;99.90;;;;;;5041088;28;20213;-85
2023/01/04 10:26:17;;;;;;;8.20;5.13;;;8.20;99.90;;;;;;5042946;28;20217;-84
2023/01/04 10:29:15;;;;;;;4.30;3.17;;;8.50;99.90;;;;;;5044843;28;20218;-87
2023/01/04 10:31:48;;;;;;;3.60;3.15;;;8.70;99.90;;;;;;5043169;28;20209;-87
2023/01/04 10:34:29;;;;;;;5.43;3.58;;;8.80;99.90;;;;;;5034356;28;20211;-88
2023/01/04 10:37:19;;;;;;;5.20;3.90;;;8.70;99.90;;;;;;5045927;28;20195;-89
2023/01/04 10:39:50;;;;;;;4.25;3.28;;;8.80;99.90;;;;;;5041832;28;20623;-85
2023/01/04 10:42:34;;;;;;;8.77;3.45;;;9.00;99.90;;;;;;5056882;28;20225;-85
2023/01/04 10:45:30;;;;;;;7.20;3.45;;;9.00;99.90;;;;;;5040628;28;20203;-86
2023/01/04 10:48:13;;;;;;;7.68;3.40;;;9.30;99.90;;;;;;5038818;28;20285;-86
2023/01/04 10:50:50;;;;;;;6.45;3.58;;;9.50;99.90;;;;;;5039567;28;20230;-84
2023/01/04 10:53:24;;;;;;;4.45;3.72;;;9.70;99.90;;;;;;5042035;28;20229;-86
2023/01/04 10:56:02;;;;;;;2.88;2.47;;;9.40;99.90;;;;;;5030465;28;20448;-86
2023/01/04 10:58:48;;;;;;;4.75;3.92;;;9.40;99.90;;;;;;5036831;28;20187;-85
2023/01/04 11:01:30;;;;;;;5.68;2.00;;;9.50;99.90;;;;;;5040130;28;20533;-84
2023/01/04 11:04:20;;;;;;;7.53;3.20;;;9.40;99.90;;;;;;5037461;28;20206;-87
2023/01/04 11:07:05;;;;;;;6.18;2.33;;;9.00;99.90;;;;;;5042375;28;20207;-84
2023/01/04 11:09:48;;;;;;;8.68;2.45;;;8.80;99.90;;;;;;5038943;28;20191;-83
2023/01/04 11:12:19;;;;;;;2.20;1.92;;;8.80;99.90;;;;;;5057229;28;20505;-86
2023/01/04 11:14:48;;;;;;;4.70;2.65;;;8.90;99.90;;;;;;5041810;28;20222;-86
2023/01/04 11:17:16;;;;;;;3.95;3.00;;;8.70;99.90;;;;;;5023623;28;20228;-84
2023/01/04 11:19:43;;;;;;;4.03;2.33;;;8.80;99.90;;;;;;5036185;28;20483;-85
2023/01/04 11:22:19;;;;;;;6.35;3.30;;;8.80;99.90;;;;;;5039269;28;20253;-86
2023/01/04 11:24:52;;;;;;;3.95;3.00;;;8.80;99.90;;;;;;5044919;28;20206;-86
2023/01/04 11:27:46;;;;;;;2.15;1.95;;;8.90;99.90;;;;;;5045632;28;20202;-87
2023/01/04 11:30:22;;;;;;;1.63;1.45;;;8.90;99.90;;;;;;5046352;28;20253;-85
2023/01/04 11:32:56;;;;;;;1.80;1.60;;;9.00;99.90;;;;;;5034125;28;20213;-88
2023/01/04 11:35:57;;;;;;;1.95;1.33;;;9.10;99.90;;;;;;5043976;28;20199;-85
2023/01/04 11:38:49;;;;;;;2.75;1.85;;;9.20;99.90;;;;;;4983868;28;20203;-86
2023/01/04 11:41:18;;;;;;;15.07;2.15;;;9.20;99.90;;;;;;5034822;28;20226;-85
2023/01/04 11:44:01;;;;;;;2.72;1.17;;;9.40;99.90;;;;;;5036405;28;20216;-85
2023/01/04 11:46:29;;;;;;;4.75;1.70;;;9.30;99.90;;;;;;5043637;28;20202;-87
2023/01/04 11:48:57;;;;;;;5.70;1.80;;;9.20;99.90;;;;;;5053235;28;20220;-89
2023/01/04 11:51:30;;;;;;;2.38;1.75;;;9.10;99.90;;;;;;5033179;28;20211;-92
2023/01/04 11:54:04;;;;;;;2.45;1.92;;;9.20;99.90;;;;;;5046271;28;20198;-87
2023/01/04 11:56:33;;;;;;;3.08;1.55;;;9.20;99.90;;;;;;5050540;28;20214;-86
2023/01/04 11:59:11;;;;;;;2.30;1.75;;;8.90;99.90;;;;;;5043920;28;20222;-87
2023/01/04 12:01:45;;;;;;;2.78;1.75;;;8.80;99.90;;;;;;5037346;28;20226;-85
2023/01/04 12:04:30;;;;;;;1.77;1.63;;;8.70;99.90;;;;;;5035242;28;20438;-87
2023/01/04 12:07:37;;;;;;;4.05;2.35;;;8.70;99.90;;;;;;5032019;28;20203;-89
2023/01/04 12:10:22;;;;;;;2.60;1.70;;;8.60;99.90;;;;;;5026881;28;20203;-84
2023/01/04 12:12:49;;;;;;;2.50;1.85;;;8.30;99.90;;;;;;5045079;28;20218;-87
2023/01/04 12:15:31;;;;;;;5.68;2.75;;;8.20;99.90;;;;;;5044311;28;20221;-90
2023/01/04 12:18:05;;;;;;;3.08;1.70;;;8.20;99.90;;;;;;5042869;28;20198;-87
2023/01/04 12:20:32;;;;;;;2.40;1.63;;;8.10;99.90;;;;;;5042683;28;20558;-92
2023/01/04 12:22:59;;;;;;;2.60;1.90;;;8.10;99.90;;;;;;5042156;28;20215;-87
2023/01/04 12:25:45;;;;;;;2.72;2.00;;;8.30;99.90;;;;;;5047173;28;20214;-85
2023/01/04 12:28:30;;;;;;;2.80;2.05;;;8.50;99.90;;;;;;5048051;28;20214;-84
2023/01/04 12:31:19;;;;;;;2.65;1.70;;;8.70;99.90;;;;;;5043930;28;20210;-88
2023/01/04 12:33:54;;;;;;;3.08;2.53;;;8.90;99.90;;;;;;5040573;28;20294;-86
2023/01/04 12:36:37;;;;;;;2.45;2.10;;;8.90;99.90;;;;;;5036772;28;20206;-86
2023/01/04 12:39:27;;;;;;;5.35;1.70;;;8.80;99.90;;;;;;5039742;28;20202;-86
2023/01/04 12:42:00;;;;;;;2.40;1.83;;;8.80;99.90;;;;;;5036106;28;20282;-87
2023/01/04 12:44:41;;;;;;;3.10;1.95;;;8.90;99.90;;;;;;5034839;28;20206;-85
2023/01/04 12:50:17;;;;;;;1.52;1.40;;;9.00;99.90;;;;;;5037392;28;20258;-87
2023/01/04 12:52:54;;;;;;;2.17;1.63;;;9.00;99.90;;;;;;5039582;28;20282;-86
2023/01/04 12:55:44;;;;;;;1.98;1.88;;;9.20;99.90;;;;;;5080780;22;20238;-84
2023/01/04 12:58:26;;;;;;;2.30;2.10;;;9.00;99.90;;;;;;5039084;28;20216;-89
2023/01/04 13:04:34;;;;;;;3.35;2.50;;;8.70;99.90;;;;;;5065817;23;20283;-89
2023/01/04 13:07:17;;;;;;;2.33;1.85;;;8.40;99.90;;;;;;5042246;28;20256;-86
2023/01/04 13:09:51;;;;;;;3.72;2.63;;;8.10;99.90;;;;;;5072696;22;20237;-86
2023/01/04 13:15:21;;;;;;;3.20;1.88;;;7.80;99.90;;;;;;5077362;22;20280;-87
2023/01/04 13:17:48;;;;;;;3.10;2.35;;;7.80;99.90;;;;;;5052467;28;20205;-89
2023/01/04 13:20:24;;;;;;;1.88;1.75;;;7.70;99.90;;;;;;5057366;28;20182;-84
2023/01/04 13:22:55;;;;;;;6.43;2.63;;;7.70;99.90;;;;;;5369363;22;20249;-89
2023/01/04 13:25:29;;;;;;;2.13;1.92;;;7.70;99.90;;;;;;5215163;22;20225;-90
2023/01/04 13:28:01;;;;;;;4.10;2.63;;;7.60;99.90;;;;;;5031276;28;20217;-92
2023/01/04 13:30:33;;;;;;;6.80;3.83;;;7.40;99.90;;;;;;5042607;28;20213;-90
2023/01/04 13:33:14;;;;;;;4.22;2.78;;;7.50;99.90;;;;;;5198926;22;20244;-87
2023/01/04 13:36:07;;;;;;;2.38;2.17;;;7.50;99.90;;;;;;5055770;28;20526;-86
2023/01/04 13:38:41;;;;;;;3.67;2.72;;;7.50;99.90;;;;;;5043794;28;20207;-86
2023/01/04 13:41:31;;;;;;;3.92;2.38;;;7.50;99.90;;;;;;5041916;28;20491;-86
2023/01/04 13:44:10;;;;;;;4.05;2.70;;;7.60;99.90;;;;;;5042690;28;20253;-86
2023/01/04 13:46:42;;;;;;;3.47;2.75;;;7.80;99.90;;;;;;5035330;28;20276;-86
2023/01/04 13:49:14;;;;;;;3.63;2.53;;;7.80;99.90;;;;;;5035636;28;20255;-85
2023/01/04 13:51:41;;;;;;;4.15;2.95;;;8.00;99.90;;;;;;5097812;22;20201;-87
2023/01/04 13:54:23;;;;;;;5.43;2.70;;;8.00;99.90;;;;;;5040240;28;20225;-86
2023/01/04 13:57:07;;;;;;;3.83;2.70;;;7.90;99.90;;;;;;5042127;28;20282;-89
2023/01/04 13:59:36;;;;;;;3.95;2.67;;;7.90;99.90;;;;;;5043188;28;20255;-86
2023/01/04 14:02:21;;;;;;;7.10;4.22;;;7.90;99.90;;;;;;5035833;28;20236;-90
2023/01/04 14:04:50;;;;;;;3.80;2.97;;;7.90;99.90;;;;;;5044574;28;20251;-89
2023/01/04 14:07:22;;;;;;;3.25;2.95;;;7.80;99.90;;;;;;5042782;28;20224;-86
2023/01/04 14:09:55;;;;;;;5.40;3.35;;;7.90;99.90;;;;;;5032022;28;20213;-87
2023/01/04 14:12:30;;;;;;;8.77;3.78;;;7.70;99.90;;;;;;5041551;28;20200;-89
2023/01/04 14:15:42;;;;;;;4.38;3.70;;;7.60;99.90;;;;;;5040293;28;20267;-89
2023/01/04 14:18:33;;;;;;;3.25;2.40;;;7.60;99.90;;;;;;5034934;28;20237;-86